Flight Track Log - Related Links

Times and Time Zones

All times are in EDT time to prevent confusion due to time zone crossing. See the SWA1377 flight status page for this flight to view local times or setup timezone preferences in your user account.

Time Position Orientation Groundspeed Altitude Reporting Facility
EDT Latitude Longitude Course Direction KTS MPH feet Rate Location/Type
Tue 12:24:37 PM 42.9333 -78.7500 180° South 156 180 1,800  Level Buffalo TRACON
Tue 12:25:13 PM 42.9000 -78.7500 180° South 185 213 3,000 2,466 Climbing Buffalo TRACON
Tue 12:25:50 PM 42.8689 -78.7533 184° South 257 296 4,800 3,959 Climbing Cleveland Center
Tue 12:26:50 PM 42.7872 -78.7386 172° South 277 319 9,400 2,600 Climbing Cleveland Center
Tue 12:27:50 PM 42.7194 -78.6728 144° Southeast 277 319 10,000 1,650 Climbing Cleveland Center
Tue 12:28:50 PM 42.6453 -78.6017 145° Southeast 298 343 12,700 3,400 Climbing Cleveland Center
Tue 12:29:50 PM 42.5692 -78.5308 146° Southeast 317 365 16,800 3,700 Climbing Cleveland Center
Tue 12:30:50 PM 42.4886 -78.4517 144° Southeast 345 397 20,100 3,050 Climbing Cleveland Center
Tue 12:31:50 PM 42.4014 -78.3675 145° Southeast 370 426 22,900 1,600 Climbing Cleveland Center
Tue 12:32:50 PM 42.3122 -78.2864 146° Southeast 383 441 23,300 550 Climbing Cleveland Center
Tue 12:33:50 PM 42.2250 -78.2025 145° Southeast 383 441 24,000 650 Climbing Cleveland Center
Tue 12:34:50 PM 42.1358 -78.1192 145° Southeast 383 441 24,600 500 Climbing Cleveland Center
Tue 12:35:50 PM 42.0422 -78.0306 145° Southeast 395 455 25,000 200 Climbing Cleveland Center
Tue 12:36:50 PM 41.9486 -77.9447 146° Southeast 401 461 25,000  Level Cleveland Center
Tue 12:38:03 PM 41.8339 -77.8392 146° Southeast 409 471 25,000  Level New York Center
Tue 12:39:03 PM 41.7392 -77.7514 145° Southeast 409 471 25,000  Level New York Center
Tue 12:40:04 PM 41.6442 -77.6636 145° Southeast 414 476 25,000  Level New York Center
Tue 12:41:04 PM 41.5514 -77.5764 145° Southeast 414 476 25,000 -347 Level New York Center
Tue 12:42:05 PM 41.4544 -77.4864 145° Southeast 414 476 24,300 -843 Descending New York Center
Tue 12:43:05 PM 41.3633 -77.4025 145° Southeast 414 476 23,300 -1,017 Descending New York Center
Tue 12:44:03 PM 41.2719 -77.3217 146° Southeast 407 468 22,300 -1,008 Descending New York Center
Tue 12:45:04 PM 41.1847 -77.2417 145° Southeast 397 457 21,300 -984 Descending New York Center
Tue 12:46:05 PM 41.0972 -77.1617 145° Southeast 392 451 20,300 -992 Descending New York Center
Tue 12:47:05 PM 41.0097 -77.0847 146° Southeast 386 444 19,300 -1,017 Descending New York Center
Tue 12:48:03 PM 40.9242 -77.0081 146° Southeast 380 437 18,300 -800 Descending New York Center
Tue 12:49:05 PM 40.8486 -76.9381 145° Southeast 373 429 17,700 -836 Descending New York Center
Tue 12:50:05 PM 40.7614 -76.8508 143° Southeast 367 422 16,600 -1,068 Descending New York Center
Tue 12:51:03 PM 40.6886 -76.7650 138° Southeast 362 417 15,600 -814 Descending New York Center
Tue 12:52:03 PM 40.6261 -76.6856 136° Southeast 356 410 15,000 -298 Descending New York Center
Tue 12:53:04 PM 40.5494 -76.5917 137° Southeast 351 404 15,000  Level New York Center
Tue 12:54:05 PM 40.4919 -76.4883 126° Southeast 346 398 15,000  Level New York Center
Tue 12:55:05 PM 40.4383 -76.3858 124° Southeast 351 404 15,000 -203 Level New York Center
Tue 12:56:03 PM 40.3842 -76.2969 129° Southeast 345 397 14,600 -966 Descending New York Center
Tue 12:57:03 PM 40.2911 -76.2814 173° South 295 339 13,100 -1,279 Descending New York Center
Tue 12:58:05 PM 40.2078 -76.2828 181° South 295 339 12,000 -541 Descending New York Center
Tue 12:59:05 PM 40.1242 -76.2897 184° South 305 351 12,000 -257 Level New York Center
Tue 01:01:12 PM 39.9333 -76.2667 175° South 309 356 11,200 -321 Descending Potomac TRACON
Tue 01:02:12 PM 39.8667 -76.2333 159° South 299 344 11,000 -100 Descending Potomac TRACON
Tue 01:03:12 PM 39.7833 -76.2167 171° South 299 344 11,000 -99 Level Potomac TRACON
Tue 01:04:13 PM 39.7167 -76.2833 218° Southwest 288 331 10,800 -645 Descending Potomac TRACON
Tue 01:05:13 PM 39.6667 -76.3500 226° Southwest 289 333 9,700 -1,096 Descending Potomac TRACON
Tue 01:06:08 PM 39.6167 -76.4333 232° Southwest 283 326 8,700 -1,043 Descending Potomac TRACON
Tue 01:07:08 PM 39.5667 -76.5000 226° Southwest 282 325 7,700 -1,000 Descending Potomac TRACON
Tue 01:08:02 PM 39.5000 -76.5000 180° South 282 325 6,800 -1,000 Descending Potomac TRACON
Tue 01:09:08 PM 39.4000 -76.4833 173° South 281 323 5,700 -1,100 Descending Potomac TRACON
Tue 01:10:02 PM 39.3500 -76.4500 153° Southeast 279 321 4,600 -944 Descending Potomac TRACON
Tue 01:10:56 PM 39.2833 -76.4333 169° South 259 298 4,000 -316 Descending Potomac TRACON
Tue 01:11:56 PM 39.2167 -76.4333 180° South 227 261 4,000 -200 Level Potomac TRACON
Tue 01:12:56 PM 39.1500 -76.4333 180° South 237 273 3,600 -500 Descending Potomac TRACON
Tue 01:13:56 PM 39.1000 -76.4667 207° Southwest 230 265 3,000 -300 Descending Potomac TRACON
Tue 01:14:56 PM 39.0667 -76.5333 237° Southwest 205 236 3,000 -53 Level Potomac TRACON
Tue 01:15:50 PM 39.0833 -76.5833 293° West 173 199 2,900 -650 Descending Potomac TRACON
Tue 01:16:56 PM 39.1167 -76.6167 322° Northwest 156 180 1,700 -1,100 Descending Potomac TRACON
Tue 01:17:50 PM 39.1500 -76.6500 322° Northwest 131 151 700 -1,111 Descending Potomac TRACON

Login

Don't have an account? Register now (free) for customized features, flight alerts, and more!